createdAt,value
2018-07-24T01:26:40.526Z,15.50
2018-07-24T01:29:11.085Z,15.50
2018-07-24T01:31:40.252Z,15.50
2018-07-24T01:34:09.453Z,15.60
2018-07-24T01:36:38.706Z,15.60
2018-07-24T01:39:09.777Z,15.60
2018-07-24T01:41:39.068Z,15.60
2018-07-24T01:44:08.413Z,15.50
2018-07-24T01:46:38.008Z,15.50
2018-07-24T01:49:07.827Z,15.50
2018-07-24T01:51:37.065Z,15.30
2018-07-24T01:54:06.406Z,15.40
2018-07-24T01:56:35.671Z,15.40
2018-07-24T01:59:05.205Z,15.40
2018-07-24T02:01:34.490Z,15.40
2018-07-24T02:04:03.754Z,15.40
2018-07-24T02:06:32.994Z,15.40
2018-07-24T02:09:02.279Z,15.40
2018-07-24T02:14:00.240Z,15.40
2018-07-24T02:16:29.964Z,15.50
2018-07-24T02:21:29.206Z,15.40
2018-07-24T02:23:58.412Z,15.40
2018-07-24T02:26:28.303Z,15.40
2018-07-24T02:28:57.711Z,15.40
2018-07-24T02:31:26.944Z,15.50
2018-07-24T02:33:56.158Z,15.60
2018-07-24T02:36:25.384Z,15.50
2018-07-24T02:38:54.804Z,15.40
2018-07-24T02:41:24.032Z,15.30
2018-07-24T02:43:53.303Z,15.10
2018-07-24T02:46:22.574Z,15.10
2018-07-24T02:48:51.908Z,15.00
2018-07-24T02:53:50.259Z,15.00
2018-07-24T02:56:19.507Z,14.90
2018-07-24T02:58:49.031Z,14.90
2018-07-24T03:01:18.212Z,14.90
2018-07-24T03:03:47.446Z,14.90
2018-07-24T03:06:16.635Z,15.00
2018-07-24T03:08:45.923Z,15.00
2018-07-24T03:11:17.348Z,15.10
2018-07-24T03:13:46.660Z,15.10
2018-07-24T03:16:16.191Z,15.10
2018-07-24T03:18:47.458Z,15.10
2018-07-24T03:21:16.678Z,15.10
2018-07-24T03:23:45.894Z,15.10
2018-07-24T03:26:15.873Z,15.10
2018-07-24T03:28:45.202Z,15.00
2018-07-24T03:31:14.379Z,15.00
2018-07-24T03:33:44.513Z,15.10
2018-07-24T03:36:13.730Z,15.10
2018-07-24T03:41:12.817Z,15.00
2018-07-24T03:43:42.044Z,14.90
2018-07-24T03:46:11.308Z,14.90
2018-07-24T03:48:41.615Z,14.80
2018-07-24T03:51:11.253Z,14.70
2018-07-24T03:53:40.854Z,14.70
2018-07-24T03:56:10.055Z,14.60
2018-07-24T03:58:39.349Z,14.70
2018-07-24T04:01:08.539Z,14.70
2018-07-24T04:03:37.807Z,14.80
2018-07-24T04:06:07.080Z,14.90
2018-07-24T04:08:36.513Z,14.90
2018-07-24T04:11:05.930Z,14.90
2018-07-24T04:13:35.138Z,14.90
2018-07-24T04:16:04.383Z,15.00
2018-07-24T04:18:49.595Z,14.90
2018-07-24T04:21:19.717Z,14.90
2018-07-24T04:23:49.591Z,15.00
2018-07-24T04:26:18.828Z,15.00
2018-07-24T04:28:51.201Z,15.10
2018-07-24T04:31:20.536Z,15.20
2018-07-24T04:33:49.804Z,15.30
2018-07-24T04:36:19.022Z,15.30
2018-07-24T04:38:48.423Z,15.30
2018-07-24T04:41:17.732Z,15.30
2018-07-24T04:43:46.936Z,15.40
2018-07-24T04:46:16.163Z,15.40
2018-07-24T04:51:14.270Z,15.50
2018-07-24T04:53:43.960Z,15.70
2018-07-24T04:58:45.065Z,15.80
2018-07-24T05:01:14.391Z,15.90
2018-07-24T05:03:49.075Z,16.00
2018-07-24T05:06:19.140Z,16.10
2018-07-24T05:08:50.599Z,16.10
2018-07-24T05:11:19.779Z,16.20
2018-07-24T05:13:49.549Z,16.30
2018-07-24T05:16:18.880Z,16.40
2018-07-24T05:18:48.301Z,16.50
2018-07-24T05:21:17.634Z,16.50
2018-07-24T05:23:46.873Z,16.60
2018-07-24T05:26:16.201Z,16.60
2018-07-24T05:28:46.744Z,16.70
2018-07-24T05:31:15.953Z,16.80
2018-07-24T05:33:45.298Z,16.90
2018-07-24T05:36:14.657Z,17.00
2018-07-24T05:38:47.545Z,17.10
2018-07-24T05:41:17.023Z,17.10
2018-07-24T05:43:46.335Z,17.20
2018-07-24T05:46:15.644Z,17.30
2018-07-24T05:48:46.738Z,17.40
2018-07-24T05:51:16.032Z,17.50
2018-07-24T05:53:45.289Z,17.60
2018-07-24T05:56:14.489Z,17.70
2018-07-24T05:58:43.826Z,17.80
2018-07-24T06:01:13.049Z,17.90
2018-07-24T06:03:44.031Z,18.00
2018-07-24T06:06:13.483Z,18.10
2018-07-24T06:08:48.510Z,18.20
2018-07-24T06:11:19.305Z,18.30
2018-07-24T06:13:48.677Z,18.40
2018-07-24T06:16:18.140Z,18.50
2018-07-24T06:18:52.951Z,18.60
2018-07-24T06:21:22.312Z,18.80
2018-07-24T06:23:51.861Z,18.80
2018-07-24T06:26:21.251Z,19.00
2018-07-24T06:28:50.650Z,19.20
2018-07-24T06:31:20.191Z,19.30
2018-07-24T06:33:49.490Z,19.40
2018-07-24T06:36:18.713Z,19.50
2018-07-24T06:38:48.580Z,19.50
2018-07-24T06:43:47.248Z,19.70
2018-07-24T06:46:17.579Z,19.70
2018-07-24T06:48:46.875Z,19.90
2018-07-24T06:51:16.090Z,20.00
2018-07-24T06:53:46.375Z,20.10
2018-07-24T06:56:15.755Z,20.30
2018-07-24T06:58:48.545Z,20.40
2018-07-24T07:01:18.818Z,20.60
2018-07-24T07:03:49.144Z,20.70
2018-07-24T07:06:18.424Z,20.80
2018-07-24T07:08:47.791Z,21.00
2018-07-24T07:11:17.171Z,21.10
2018-07-24T07:13:46.434Z,21.20
2018-07-24T07:16:15.769Z,21.30
2018-07-24T07:18:45.980Z,21.40
2018-07-24T07:21:15.291Z,21.60
2018-07-24T07:23:44.571Z,21.70
2018-07-24T07:26:13.777Z,21.80
2018-07-24T07:28:44.519Z,21.90
2018-07-24T07:31:14.194Z,22.10
2018-07-24T07:33:44.041Z,22.10
2018-07-24T07:36:14.014Z,22.20
2018-07-24T07:38:47.000Z,22.30
2018-07-24T07:41:17.319Z,22.40
2018-07-24T07:43:46.932Z,22.50
2018-07-24T07:46:16.775Z,22.60
2018-07-24T07:48:51.296Z,22.70
2018-07-24T07:51:20.534Z,22.90
2018-07-24T07:53:53.856Z,23.00
2018-07-24T07:56:23.964Z,23.10
2018-07-24T07:58:55.986Z,23.30
2018-07-24T08:01:27.630Z,23.40
2018-07-24T08:04:04.712Z,23.50
2018-07-24T08:06:34.463Z,23.60
2018-07-24T08:09:07.020Z,23.60
2018-07-24T08:14:06.005Z,23.90
2018-07-24T08:16:36.318Z,23.90
2018-07-24T08:19:05.851Z,24.00
2018-07-24T08:21:35.114Z,24.10
2018-07-24T08:24:04.438Z,24.30
2018-07-24T08:26:35.186Z,24.40
2018-07-24T08:29:05.442Z,24.50
2018-07-24T08:31:38.041Z,24.60
2018-07-24T08:34:07.424Z,24.70
2018-07-24T08:36:39.434Z,24.80
2018-07-24T08:39:13.216Z,24.90
2018-07-24T08:41:42.697Z,25.00
2018-07-24T08:44:13.483Z,25.10
2018-07-24T08:46:43.223Z,25.10
2018-07-24T08:49:14.655Z,25.20
2018-07-24T08:54:15.566Z,25.40
2018-07-24T08:56:45.337Z,25.40
2018-07-24T08:59:15.415Z,25.40
2018-07-24T09:01:44.651Z,25.60
2018-07-24T09:04:14.138Z,25.60
2018-07-24T09:06:44.231Z,25.70
2018-07-24T09:09:14.367Z,25.80
2018-07-24T09:11:45.158Z,25.80
2018-07-24T09:14:14.402Z,25.80
2018-07-24T09:16:45.311Z,25.80
2018-07-24T09:19:16.759Z,25.90
2018-07-24T09:21:45.946Z,26.00
2018-07-24T09:24:15.177Z,26.10
2018-07-24T09:26:44.367Z,26.10
2018-07-24T09:29:13.748Z,26.30
2018-07-24T09:31:42.966Z,26.30
2018-07-24T09:34:12.200Z,26.30
2018-07-24T09:36:41.423Z,26.40
2018-07-24T09:39:11.591Z,26.50
2018-07-24T09:41:40.833Z,26.60
2018-07-24T09:46:38.762Z,26.70
2018-07-24T09:49:11.138Z,26.80
2018-07-24T09:51:40.355Z,26.80
2018-07-24T09:54:09.688Z,26.90
2018-07-24T09:56:39.001Z,26.90
2018-07-24T10:01:41.085Z,26.90
2018-07-24T10:04:10.290Z,27.00
2018-07-24T10:06:39.531Z,27.20
2018-07-24T10:09:10.370Z,27.20
2018-07-24T10:11:39.608Z,27.30
2018-07-24T10:14:10.373Z,27.30
2018-07-24T10:16:40.311Z,27.40
2018-07-24T10:19:09.516Z,27.40
2018-07-24T10:21:40.722Z,27.50
2018-07-24T10:24:11.151Z,27.60
2018-07-24T10:26:41.535Z,27.60
2018-07-24T10:29:12.350Z,27.60
2018-07-24T10:31:42.336Z,27.50
2018-07-24T10:34:11.542Z,27.50
2018-07-24T10:36:40.811Z,27.60
2018-07-24T10:39:11.663Z,27.70
2018-07-24T10:41:41.281Z,27.90
2018-07-24T10:44:10.706Z,27.90
2018-07-24T10:46:39.983Z,27.90
2018-07-24T10:49:10.028Z,27.90
2018-07-24T10:51:39.302Z,28.00
2018-07-24T10:54:08.517Z,28.00
2018-07-24T10:56:37.769Z,28.10
2018-07-24T10:59:07.190Z,28.10
2018-07-24T11:01:36.481Z,28.30
2018-07-24T11:04:05.744Z,28.30
2018-07-24T11:06:34.930Z,28.50
2018-07-24T11:09:06.168Z,28.60
2018-07-24T11:11:41.005Z,28.60
2018-07-24T11:14:12.883Z,28.70
2018-07-24T11:16:48.054Z,28.70
2018-07-24T11:19:18.925Z,28.90
2018-07-24T11:21:48.283Z,28.90
2018-07-24T11:24:17.486Z,28.80
2018-07-24T11:26:46.778Z,28.90
2018-07-24T11:29:19.963Z,28.90
2018-07-24T11:31:49.244Z,29.00
2018-07-24T11:34:18.460Z,29.10
2018-07-24T11:36:47.724Z,29.00
2018-07-24T11:39:17.093Z,29.00
2018-07-24T11:41:46.350Z,29.00
2018-07-24T11:44:16.642Z,29.10
2018-07-24T11:46:45.907Z,29.30
2018-07-24T11:49:15.321Z,29.40
2018-07-24T11:51:45.003Z,29.60
2018-07-24T11:54:14.149Z,29.70
2018-07-24T11:56:43.356Z,29.80
2018-07-24T11:59:15.736Z,29.90
2018-07-24T12:01:46.000Z,29.90
2018-07-24T12:04:17.171Z,29.90
2018-07-24T12:06:46.510Z,29.90
2018-07-24T12:09:15.788Z,29.80
2018-07-24T12:11:45.068Z,29.90
2018-07-24T12:14:14.229Z,30.00
2018-07-24T12:16:43.539Z,30.10
2018-07-24T12:19:12.946Z,30.20
2018-07-24T12:21:42.251Z,30.40
2018-07-24T12:24:11.559Z,30.50
2018-07-24T12:26:40.957Z,30.50
2018-07-24T12:29:10.492Z,30.40
2018-07-24T12:31:39.826Z,30.30
2018-07-24T12:34:09.184Z,30.30
2018-07-24T12:36:38.446Z,30.30
2018-07-24T12:39:09.790Z,30.40
2018-07-24T12:41:39.042Z,30.50
2018-07-24T12:44:12.713Z,30.70
2018-07-24T12:46:42.213Z,30.90
2018-07-24T12:49:11.690Z,31.00
2018-07-24T12:51:41.536Z,31.00
2018-07-24T12:54:10.916Z,30.90
2018-07-24T12:56:44.707Z,31.00
2018-07-24T12:59:16.436Z,31.10
2018-07-24T13:01:46.429Z,31.30
2018-07-24T13:04:15.823Z,31.40
2018-07-24T13:06:45.016Z,31.60
2018-07-24T13:09:17.132Z,31.60
2018-07-24T13:11:49.071Z,31.80
2018-07-24T13:14:19.637Z,32.00
2018-07-24T13:16:51.100Z,32.20
2018-07-24T13:19:20.531Z,32.50
2018-07-24T13:21:50.243Z,32.70
2018-07-24T13:24:21.223Z,32.90
2018-07-24T13:26:51.792Z,32.90
2018-07-24T13:29:21.197Z,33.10
2018-07-24T13:31:54.114Z,33.40
2018-07-24T13:34:23.277Z,33.70
2018-07-24T13:36:53.262Z,34.00
2018-07-24T13:39:29.329Z,34.20
2018-07-24T13:42:07.981Z,35.20
2018-07-24T13:44:39.985Z,36.70
2018-07-24T13:47:21.249Z,37.80
2018-07-24T13:49:50.836Z,39.00
2018-07-24T13:52:20.188Z,39.80
2018-07-24T13:54:50.471Z,41.00
2018-07-24T13:57:21.037Z,41.80
2018-07-24T13:59:51.186Z,42.00
2018-07-24T14:02:23.859Z,42.60
2018-07-24T14:04:53.728Z,42.80
2018-07-24T14:07:23.011Z,43.20
2018-07-24T14:09:55.859Z,43.20
2018-07-24T14:12:27.453Z,43.20
2018-07-24T14:14:56.745Z,44.10
2018-07-24T14:17:29.935Z,44.20
2018-07-24T14:19:59.255Z,44.10
2018-07-24T14:22:29.227Z,44.40
2018-07-24T14:24:59.578Z,44.70
2018-07-24T14:27:29.552Z,45.50
2018-07-24T14:30:03.928Z,45.80
2018-07-24T14:32:33.265Z,46.00
2018-07-24T14:35:06.387Z,45.40
2018-07-24T14:37:35.732Z,45.00
2018-07-24T14:40:05.823Z,44.10
2018-07-24T14:42:35.228Z,43.30
2018-07-24T14:45:04.552Z,43.40
2018-07-24T14:50:02.896Z,43.50
2018-07-24T14:52:32.262Z,44.10
2018-07-24T14:55:01.568Z,45.20
2018-07-24T14:57:31.650Z,45.40
2018-07-24T15:00:00.868Z,45.60
2018-07-24T15:02:30.810Z,45.90
2018-07-24T15:05:00.079Z,45.50
2018-07-24T15:09:59.224Z,45.50
2018-07-24T15:12:28.488Z,45.50
2018-07-24T15:14:57.675Z,46.00
2018-07-24T15:17:28.859Z,46.00
2018-07-24T15:19:58.319Z,46.80
2018-07-24T15:22:27.568Z,47.60
2018-07-24T15:24:56.821Z,48.20
2018-07-24T15:27:26.123Z,48.50
2018-07-24T15:29:59.291Z,48.70
2018-07-24T15:32:32.367Z,47.60
2018-07-24T15:35:01.837Z,46.10
2018-07-24T15:37:31.210Z,45.50
2018-07-24T15:40:01.907Z,45.80
2018-07-24T15:42:37.210Z,46.20
2018-07-24T15:45:06.532Z,46.50
2018-07-24T15:47:35.844Z,46.80
2018-07-24T15:50:11.130Z,47.10
2018-07-24T15:52:42.674Z,47.60
2018-07-24T15:55:11.995Z,48.30
2018-07-24T15:57:42.061Z,48.10
2018-07-24T16:00:12.319Z,47.40
2018-07-24T16:02:42.505Z,47.70
2018-07-24T16:05:12.714Z,47.80
2018-07-24T16:07:42.891Z,47.20
2018-07-24T16:10:16.592Z,46.30
2018-07-24T16:12:48.447Z,46.10
2018-07-24T16:15:19.768Z,46.00
2018-07-24T16:17:49.973Z,46.20
2018-07-24T16:20:20.308Z,46.60
2018-07-24T16:22:49.922Z,46.90
2018-07-24T16:25:19.219Z,47.20
2018-07-24T16:27:48.948Z,47.60
2018-07-24T16:30:32.682Z,47.90
2018-07-24T16:33:03.399Z,48.10
2018-07-24T16:35:33.765Z,48.20
2018-07-24T16:40:37.331Z,47.80
2018-07-24T16:43:06.721Z,47.70
2018-07-24T16:45:36.025Z,46.80
2018-07-24T16:48:06.091Z,46.10
2018-07-24T16:50:35.378Z,45.90
2018-07-24T16:53:04.965Z,45.70
2018-07-24T16:56:07.445Z,45.70
2018-07-24T16:59:23.148Z,45.90
2018-07-24T17:02:09.641Z,45.90
2018-07-24T17:05:08.069Z,45.80
2018-07-24T17:07:57.803Z,45.60
2018-07-24T17:10:51.191Z,45.20
2018-07-24T17:13:38.158Z,44.70
2018-07-24T17:16:09.568Z,44.10
2018-07-24T17:18:39.965Z,43.30
2018-07-24T17:21:09.398Z,42.90
2018-07-24T17:23:39.202Z,42.80
2018-07-24T17:26:09.441Z,42.80
2018-07-24T17:28:39.087Z,42.50
2018-07-24T17:31:08.653Z,42.00
2018-07-24T17:33:38.290Z,41.00
2018-07-24T17:36:07.933Z,39.50
2018-07-24T17:38:37.332Z,38.40
2018-07-24T17:41:07.131Z,37.50
2018-07-24T17:43:36.544Z,36.40
2018-07-24T17:46:06.811Z,35.50
2018-07-24T17:48:39.396Z,34.60
2018-07-24T17:51:09.839Z,33.90
2018-07-24T17:53:40.164Z,33.20
2018-07-24T17:56:10.073Z,32.70
2018-07-24T17:58:40.911Z,32.20
2018-07-24T18:01:10.846Z,31.70
2018-07-24T18:03:39.990Z,31.30
2018-07-24T18:06:11.556Z,31.00
2018-07-24T18:08:45.293Z,30.70
2018-07-24T18:11:16.917Z,30.50
2018-07-24T18:13:46.513Z,30.20
2018-07-24T18:16:23.407Z,30.00
2018-07-24T18:18:54.084Z,29.80
2018-07-24T18:21:23.545Z,29.70
2018-07-24T18:23:52.818Z,29.40
2018-07-24T18:26:23.030Z,28.80
2018-07-24T18:28:54.501Z,28.20
2018-07-24T18:31:23.846Z,27.80
2018-07-24T18:33:59.055Z,27.40
2018-07-24T18:36:30.859Z,27.00
2018-07-24T18:39:00.311Z,26.80
2018-07-24T18:41:32.748Z,26.50
2018-07-24T18:44:02.904Z,26.20
2018-07-24T18:46:38.572Z,26.10
2018-07-24T18:49:16.807Z,25.90
2018-07-24T18:51:48.032Z,25.60
2018-07-24T18:54:20.711Z,25.50
2018-07-24T18:56:50.234Z,25.10
2018-07-24T18:59:28.601Z,24.90
2018-07-24T19:01:59.872Z,24.60
2018-07-24T19:04:30.517Z,24.40
2018-07-24T19:07:00.429Z,24.20
2018-07-24T19:09:30.965Z,24.10
2018-07-24T19:14:30.069Z,23.80
2018-07-24T19:17:02.171Z,23.60
2018-07-24T19:19:33.093Z,23.50
2018-07-24T19:22:02.513Z,23.40
2018-07-24T19:24:32.584Z,23.30
2018-07-24T19:27:02.569Z,23.20
2018-07-24T19:29:32.113Z,23.20
2018-07-24T19:32:02.229Z,23.00
2018-07-24T19:34:31.575Z,22.90
2018-07-24T19:37:02.337Z,22.70
2018-07-24T19:39:31.779Z,22.60
2018-07-24T19:42:01.153Z,22.50
2018-07-24T19:44:30.366Z,22.30
2018-07-24T19:46:59.809Z,22.20
2018-07-24T19:49:29.677Z,22.10
2018-07-24T19:51:58.977Z,22.00
2018-07-24T19:54:28.581Z,22.00
2018-07-24T19:56:58.324Z,21.80
2018-07-24T19:59:27.843Z,21.70
2018-07-24T20:01:58.906Z,21.70
2018-07-24T20:04:29.594Z,21.60
2018-07-24T20:06:59.108Z,21.50
2018-07-24T20:09:28.920Z,21.40
2018-07-24T20:11:58.710Z,21.30
2018-07-24T20:14:28.684Z,21.20
2018-07-24T20:16:58.549Z,21.10
2018-07-24T20:19:30.234Z,21.00
2018-07-24T20:22:01.454Z,20.80
2018-07-24T20:24:32.115Z,20.80
2018-07-24T20:27:01.826Z,20.80
2018-07-24T20:29:32.148Z,20.80
2018-07-24T20:32:03.828Z,20.90
2018-07-24T20:34:33.387Z,20.80
2018-07-24T20:37:06.674Z,20.70
2018-07-24T20:39:36.515Z,20.60
2018-07-24T20:42:05.907Z,20.50
2018-07-24T20:44:35.234Z,20.50
2018-07-24T20:47:05.197Z,20.40
2018-07-24T20:49:40.107Z,20.30
2018-07-24T20:52:18.656Z,20.30
2018-07-24T20:54:49.485Z,20.40
2018-07-24T20:57:21.589Z,20.30
2018-07-24T20:59:51.269Z,20.10
2018-07-24T21:02:23.481Z,20.00
2018-07-24T21:04:53.059Z,19.90
2018-07-24T21:07:22.285Z,19.90
2018-07-24T21:09:51.653Z,19.90
2018-07-24T21:12:20.905Z,19.70
2018-07-24T21:14:50.893Z,19.80
2018-07-24T21:17:22.616Z,19.80
2018-07-24T21:19:52.867Z,19.60
2018-07-24T21:22:22.614Z,19.50
2018-07-24T21:24:51.943Z,19.40
2018-07-24T21:27:21.297Z,19.40
2018-07-24T21:29:51.482Z,19.30
2018-07-24T21:32:23.211Z,19.40
2018-07-24T21:34:52.453Z,19.30
2018-07-24T21:37:22.148Z,19.40
2018-07-24T21:39:51.573Z,19.60
2018-07-24T21:42:20.833Z,19.50
2018-07-24T21:44:50.065Z,19.30
2018-07-24T21:47:22.074Z,19.30
2018-07-24T21:49:51.562Z,19.30
2018-07-24T21:52:20.794Z,19.20
2018-07-24T21:54:50.109Z,19.10
2018-07-24T21:57:19.340Z,19.00
2018-07-24T21:59:59.609Z,19.00
2018-07-24T22:02:28.893Z,19.00
2018-07-24T22:04:58.176Z,19.00
2018-07-24T22:07:28.277Z,18.90
2018-07-24T22:09:59.982Z,18.90
2018-07-24T22:12:31.279Z,18.80
2018-07-24T22:15:00.695Z,18.70
2018-07-24T22:17:33.971Z,18.70
2018-07-24T22:20:03.400Z,18.60
2018-07-24T22:22:37.832Z,18.60
2018-07-24T22:25:08.966Z,18.60
2018-07-24T22:27:38.694Z,18.60
2018-07-24T22:30:08.702Z,18.80
2018-07-24T22:32:38.129Z,18.80
2018-07-24T22:35:08.275Z,18.80
2018-07-24T22:37:38.342Z,18.70
2018-07-24T22:40:09.180Z,18.60
2018-07-24T22:42:38.697Z,18.40
2018-07-24T22:45:12.135Z,18.30
2018-07-24T22:47:41.388Z,18.30
2018-07-24T22:50:12.099Z,18.30
2018-07-24T22:52:41.354Z,18.30
2018-07-24T22:55:12.642Z,18.40
2018-07-24T22:57:43.055Z,18.40
2018-07-24T23:02:45.483Z,18.30
2018-07-24T23:05:16.290Z,18.30
2018-07-24T23:07:49.530Z,18.30
2018-07-24T23:10:19.343Z,18.10
2018-07-24T23:12:48.608Z,17.90
2018-07-24T23:15:18.873Z,17.80
2018-07-24T23:17:48.943Z,17.90
2018-07-24T23:20:18.956Z,17.80
2018-07-24T23:22:49.556Z,17.80
2018-07-24T23:25:19.031Z,17.80
2018-07-24T23:27:49.460Z,17.70
2018-07-24T23:30:19.524Z,17.60
2018-07-24T23:32:49.006Z,17.50
2018-07-24T23:35:18.233Z,17.50
2018-07-24T23:37:48.217Z,17.50
2018-07-24T23:40:22.695Z,17.50
2018-07-24T23:42:53.840Z,17.40
2018-07-24T23:45:27.462Z,17.40
2018-07-24T23:47:57.647Z,17.30
2018-07-24T23:50:27.809Z,17.20
2018-07-24T23:52:58.029Z,17.20
2018-07-24T23:55:27.713Z,17.10
2018-07-24T23:57:58.606Z,17.20
